ePrivacy and GPDR Cookie Consent by Cookie Consent
EmailTwitter


Observations de surface / États-Unis / KJFK (74486)

Régions: Québec | Canada | États-Unis | Europe | France | UK | Ailleurs
Station
Affichage
Infos & localisation pour KJFK (74486) | Aide pour décoder les METARs

Observations prises le 2022-09-27 à 22H51 UTC à NEW YORK/JF KENN, NY (KJFK)

Etat du ciel: ciel variable.

Température: 19.0 Celsius

Point de rosée: 7.0 Celsius

Humidité relative: 46%

Vents: Ouest à 17 km/h ou 9 noeuds.

Pression au niveau moyen de la mer: 101.26 kilopascals.

Calage altimétrique: 101.25 kilopascals ou 29.90 pouces de mercure.

Visibilité horizontale: 10.00 milles terrestres ou 16.00 kilomètres.

Observation METAR:

KJFK 272251Z 28009KT 10SM FEW055 SCT075 19/07 A2990 RMK AO2 SLP126 T01940072=